Hauptseite
METAR-TAF:

METAR-TAF

Flughäfen :

Flughafen Adelaide

Adelaide, Australien

Breite: 34-56S, Länge: 138-31E, Höhe: 6 m

Beobachtung

Neuester Wetterbericht von vor 24 Minuten, um 21:00 UTC
Windstille
Temperatur 6°C
Luftfeuchtigkeit 93%
Luftdruck 1030 hPa
Sichtweite 10 km oder mehr
Leicht bewölkt in der Höhe von 2200 ft
Aufgelockert bewölkt in der Höhe von 4500 ft

METAR: YPAD 232100Z 00000KT 9999 FEW022 SCT045 06/05 Q1030 NOSIG

Zeit: 06:54 (21:24 UTC)

Prognose

Neuester Wetterbericht von vor 4 Stunden und 7 Minuten, um 17:17 UTC
Gültige Prognose vom 23 um 18 UTC bis 24 um 24 UTC
Wind 5 kt aus unterschiedlichen Richtungen
Sichtweite 10 km oder mehr
Aufgelockert bewölkt in der Höhe von 3000 ft

TAF: YPAD 231717Z 2318/2424 VRB05KT 9999 SCT030

Wetterbeobachtungen und Prognosen von mehr als 4000 Flughäfen (METAR und TAF Bericht).

Die verfügbaren Stationen werden durch gelbe und rote Markierungen auf der Karte dargestellt.

Führen Sie die Maus auf sie, um den Namen der Station zu sehen.

Darauf klicken, um die Beobachtung von Wetterbeobachtungen und Prognosen zu sehen.

Um die Karte zu ändern : klicken Sie auf den grünen Tasten mit einem schwarzen Kreuz Zum Vergrößern, auf den grünen Button mit einem Gedankenstrich zu verkleinern, oder auf die grünen Pfeile für benachbarte Karten.


METAR-TAF: